Latest Weather Observations for Redcliffe

IDQ60901

Issued at 6:12 pm EST Saturday 27 August 2016 (issued every 10 minutes, with the page automatically refreshed every 10 minutes)

About weather observations | Map of Brisbane area stations | Latest observations for Brisbane area | Other Formats
Station Details ID: 040958 Name: REDCLIFFE Lat: -27.22 Lon: 153.09 Height: 12.6 m
Data from the previous 72 hours. | See also: Recent months at Redcliffe
Date/Time
EST
Temp
°C
App
Temp
°C
Dew
Point
°C
Rel
Hum
%
Delta-T
°C
Wind Press
QNH
hPa
Press
MSL
hPa
Rain since
9am
mm
Dir  Spd
km/h
Gust
km/h
Spd
kts
Gust
kts
27/06:00pm 17.4 13.3 0.1 31 7.5 W 11 13 6 7 1019.4 1019.4 0.0
27/05:30pm 18.2 14.0 -0.6 28 8.1 W 11 15 6 8 1018.9 1018.9 0.0
27/05:00pm 19.3 14.7 -1.2 25 8.8 WSW 13 19 7 10 1018.7 1018.7 0.0
27/04:30pm 19.9 14.5 -1.2 24 9.1 WSW 17 26 9 14 1018.4 1018.4 0.0
27/04:00pm 20.3 14.3 -3.4 20 9.8 WSW 19 26 10 14 1018.1 1018.1 0.0
27/03:30pm 20.9 15.5 -1.6 22 9.7 WSW 17 30 9 16 1017.9 1017.9 0.0
27/03:00pm 20.3 14.9 -1.5 23 9.3 WSW 17 30 9 16 1017.9 1017.9 0.0
27/02:30pm 20.6 15.5 1.0 27 8.9 WSW 17 30 9 16 1017.9 1017.9 0.0
27/02:00pm 20.2 15.8 0.6 27 8.8 WSW 13 22 7 12 1018.1 1018.1 0.0
27/01:30pm 20.2 15.4 0.1 26 8.9 SW 15 22 8 12 1018.4 1018.4 0.0
27/01:00pm 20.3 15.4 1.7 29 8.5 S 17 22 9 12 1018.5 1018.5 0.0
27/12:30pm 20.6 15.2 1.0 27 8.9 S 19 24 10 13 1018.7 1018.7 0.0
27/12:00pm 19.7 13.9 0.2 27 8.6 S 20 26 11 14 1019.1 1019.1 0.0
27/11:30am 19.2 13.7 0.3 28 8.3 S 19 28 10 15 1019.2 1019.2 0.0
27/11:00am 18.8 13.8 1.3 31 7.8 SSW 17 30 9 16 1019.6 1019.6 0.0
27/10:30am 18.6 13.8 2.4 34 7.4 SW 17 24 9 13 1020.2 1020.2 0.0
27/10:00am 18.2 13.3 1.7 33 7.4 SSW 17 26 9 14 1020.4 1020.4 0.0
27/09:30am 17.1 11.8 1.9 36 6.8 SW 19 28 10 15 1020.4 1020.4 0.0
27/09:00am 16.0 10.9 2.8 41 5.9 SW 19 28 10 15 1020.2 1020.2 0.0
27/08:30am 15.1 9.7 2.6 43 5.6 SW 20 30 11 16 1020.1 1020.1 0.0
27/08:00am 13.5 9.1 2.7 48 4.8 WSW 15 22 8 12 1020.0 1020.0 0.0
27/07:30am 11.9 8.1 3.9 58 3.6 WSW 13 15 7 8 1019.8 1019.8 0.0
27/07:00am 10.5 - 3.8 63 2.9 - - - - - 1019.7 1019.7 0.0
27/06:30am 9.6 6.1 3.6 66 2.6 WSW 11 15 6 8 1019.6 1019.6 0.0
27/06:00am 9.4 5.9 3.6 67 2.5 WSW 11 13 6 7 1019.2 1019.2 0.0
27/05:30am 9.6 6.2 4.0 68 2.5 WSW 11 17 6 9 1019.0 1019.0 0.0
27/05:00am 9.9 6.5 4.1 67 2.6 WSW 11 13 6 7 1018.6 1018.6 0.0
27/04:30am 9.9 6.5 4.1 67 2.6 WSW 11 15 6 8 1018.2 1018.2 0.0
27/04:00am 10.3 6.5 3.8 64 2.9 WSW 13 17 7 9 1018.0 1018.0 0.0
27/03:30am 10.8 6.6 3.6 61 3.2 WSW 15 22 8 12 1017.7 1017.7 0.0
27/03:00am 11.3 7.0 3.3 58 3.5 WSW 15 20 8 11 1017.7 1017.7 0.0
27/02:30am 11.6 7.2 2.9 55 3.8 SW 15 19 8 10 1018.0 1018.0 0.0
27/02:00am 11.4 7.0 2.7 55 3.8 SW 15 24 8 13 1017.8 1017.8 0.0
27/01:30am 11.3 6.8 2.3 54 3.9 SW 15 19 8 10 1017.5 1017.5 0.0
27/01:00am 11.9 8.2 2.1 51 4.2 WSW 11 17 6 9 1017.5 1017.5 0.0
27/12:30am 12.1 7.6 2.3 51 4.2 WSW 15 19 8 10 1017.5 1017.5 0.0
27/12:00am 12.4 8.2 1.7 48 4.6 W 13 19 7 10 1017.4 1017.4 0.0
 
Date/Time
EST
Temp
°C
App
Temp
°C
Dew
Point
°C
Rel
Hum
%
Delta-T
°C
Wind Press
QNH
hPa
Press
MSL
hPa
Rain since
9am
mm
Dir  Spd
km/h
Gust
km/h
Spd
kts
Gust
kts
26/11:30pm 13.1 8.1 1.5 45 5.0 W 17 26 9 14 1017.4 1017.4 0.0
26/11:00pm 13.5 8.2 1.8 45 5.1 WSW 19 30 10 16 1017.3 1017.3 0.0
26/10:30pm 13.9 8.3 1.5 43 5.4 WSW 20 33 11 18 1017.3 1017.3 0.0
26/10:00pm 14.2 9.2 1.5 42 5.5 WSW 17 26 9 14 1017.3 1017.3 0.0
26/09:30pm 14.6 8.7 1.5 41 5.7 WSW 22 35 12 19 1017.1 1017.1 0.0
26/09:00pm 14.8 9.7 0.6 38 6.0 WSW 17 30 9 16 1017.2 1017.2 0.0
26/08:30pm 15.2 10.5 1.0 38 6.1 W 15 17 8 9 1016.9 1016.9 0.0
26/08:00pm 15.1 11.1 2.6 43 5.6 W 13 17 7 9 1016.9 1016.9 0.0
26/07:30pm 15.2 12.1 5.4 52 4.7 WSW 11 17 6 9 1016.6 1016.6 0.0
26/07:00pm 14.8 12.3 8.1 64 3.3 WSW 11 17 6 9 1016.2 1016.2 0.0
26/06:30pm 15.4 14.5 7.9 61 3.8 NE 2 6 1 3 1015.7 1015.7 0.0
26/06:00pm 16.4 14.6 7.9 57 4.3 NNE 7 9 4 5 1015.4 1015.4 0.0
26/05:30pm 17.0 14.7 7.6 54 4.7 NNE 9 11 5 6 1015.1 1015.1 0.0
26/05:00pm 17.6 15.2 7.1 50 5.2 ENE 9 11 5 6 1015.0 1015.0 0.0
26/04:30pm 17.8 15.8 7.0 49 5.4 ENE 7 11 4 6 1014.6 1014.6 0.0
26/04:00pm 17.9 15.0 6.7 48 5.6 ENE 11 13 6 7 1014.3 1014.3 0.0
26/03:30pm 18.1 14.7 6.0 45 5.9 E 13 15 7 8 1014.2 1014.2 0.0
26/03:00pm 18.7 15.3 5.9 43 6.3 E 13 17 7 9 1014.0 1014.0 0.0
26/02:30pm 19.0 15.3 4.4 38 7.0 E 13 15 7 8 1014.2 1014.2 0.0
26/02:00pm 19.2 15.6 4.9 39 6.9 E 13 15 7 8 1014.4 1014.4 0.0
26/01:30pm 19.4 16.5 4.7 38 7.1 E 9 13 5 7 1014.6 1014.6 0.0
26/01:00pm 19.0 15.9 3.6 36 7.2 E 9 11 5 6 1014.9 1014.9 0.0
26/12:30pm 19.1 15.3 3.7 36 7.3 ESE 13 15 7 8 1015.3 1015.3 0.0
26/12:00pm 18.5 14.4 4.3 39 6.7 SSE 15 17 8 9 1015.7 1015.7 0.0
26/11:30am 18.6 14.1 2.4 34 7.4 SSE 15 17 8 9 1016.0 1016.0 0.0
26/11:00am 18.4 14.3 4.2 39 6.7 SSE 15 19 8 10 1016.4 1016.4 0.0
26/10:30am 18.2 14.4 4.0 39 6.7 S 13 17 7 9 1016.7 1016.7 0.0
26/10:00am 17.3 13.4 5.3 45 5.8 SSW 15 22 8 12 1017.1 1017.1 0.0
26/09:30am 16.1 12.7 4.2 45 5.5 SW 11 17 6 9 1017.4 1017.4 0.0
26/09:00am 15.6 12.0 4.9 49 5.0 SW 13 17 7 9 1017.8 1017.8 0.0
26/08:30am 14.2 10.6 4.8 53 4.4 WSW 13 19 7 10 1018.0 1018.0 0.0
26/08:00am 13.5 10.1 5.9 60 3.6 W 13 19 7 10 1017.8 1017.8 0.0
26/07:30am 11.9 8.5 5.8 66 2.8 W 13 17 7 9 1017.6 1017.6 0.0
26/07:00am 10.3 - 5.5 72 2.2 - - - - - 1017.4 1017.4 0.0
26/06:30am 9.5 - 5.1 74 2.0 - - - - - 1017.1 1017.1 0.0
26/06:00am 9.5 6.3 4.9 73 2.1 W 11 15 6 8 1016.8 1016.8 0.0
26/05:30am 9.2 5.9 4.8 74 2.0 W 11 15 6 8 1016.6 1016.6 0.0
26/05:00am 9.3 6.4 4.9 74 2.0 NW 9 11 5 6 1016.2 1016.2 0.0
26/04:30am 9.6 7.1 5.0 73 2.1 NW 7 11 4 6 1015.9 1015.9 0.0
26/04:00am 9.7 6.8 4.7 71 2.2 WNW 9 13 5 7 1015.4 1015.4 0.0
26/03:30am 9.7 6.4 4.5 70 2.3 W 11 15 6 8 1015.2 1015.2 0.0
26/03:00am 10.3 6.6 4.2 66 2.7 W 13 19 7 10 1015.2 1015.2 0.0
26/02:30am 11.2 7.5 4.4 63 3.1 WSW 13 19 7 10 1015.3 1015.3 0.0
26/02:00am 11.5 8.2 4.5 62 3.2 W 11 17 6 9 1015.3 1015.3 0.0
26/01:30am 11.0 7.3 4.7 65 2.8 WSW 13 19 7 10 1015.4 1015.4 0.0
26/01:00am 11.1 7.0 4.6 64 2.9 WSW 15 22 8 12 1015.3 1015.3 0.0
26/12:30am 11.4 8.5 4.4 62 3.2 WSW 9 15 5 8 1015.5 1015.5 0.0
26/12:00am 12.2 8.8 4.2 58 3.6 W 11 15 6 8 1015.6 1015.6 0.0
 
Date/Time
EST
Temp
°C
App
Temp
°C
Dew
Point
°C
Rel
Hum
%
Delta-T
°C
Wind Press
QNH
hPa
Press
MSL
hPa
Rain since
9am
mm
Dir  Spd
km/h
Gust
km/h
Spd
kts
Gust
kts
25/11:30pm 12.5 8.7 4.0 56 3.8 WSW 13 19 7 10 1015.7 1015.7 0.0
25/11:00pm 12.8 8.7 4.3 56 3.9 WSW 15 22 8 12 1015.9 1015.9 0.0
25/10:30pm 13.0 8.5 4.2 55 4.0 WSW 17 26 9 14 1015.7 1015.7 0.0
25/10:00pm 13.6 9.9 4.2 53 4.3 W 13 24 7 13 1016.0 1016.0 0.0
25/09:30pm 13.6 9.6 4.7 55 4.1 WSW 15 22 8 12 1015.8 1015.8 0.0
25/09:00pm 13.6 9.5 4.2 53 4.3 W 15 24 8 13 1015.6 1015.6 0.0
25/08:30pm 14.1 10.3 4.1 51 4.6 W 13 19 7 10 1015.8 1015.8 0.0
25/08:00pm 14.7 9.9 4.4 50 4.8 W 19 28 10 15 1015.3 1015.3 0.0
25/07:30pm 15.1 11.4 4.5 49 4.9 WSW 13 19 7 10 1015.3 1015.3 0.0
25/07:00pm 15.7 11.6 4.4 47 5.3 WSW 15 24 8 13 1014.6 1014.6 0.0
25/06:30pm 15.8 10.9 4.2 46 5.4 W 19 30 10 16 1014.1 1014.1 0.0
25/06:00pm 16.4 11.9 4.1 44 5.7 W 17 26 9 14 1013.7 1013.7 0.0
25/05:30pm 17.2 12.3 4.2 42 6.1 WSW 19 26 10 14 1012.9 1012.9 0.0
25/05:00pm 18.1 12.8 3.2 37 6.9 WSW 20 33 11 18 1012.4 1012.4 0.0
25/04:30pm 18.8 13.1 3.0 35 7.3 WSW 22 37 12 20 1011.8 1011.8 0.0
25/04:00pm 19.6 13.5 2.9 33 7.8 WSW 24 39 13 21 1011.6 1011.6 0.0
25/03:30pm 19.9 14.3 3.2 33 7.9 SW 22 33 12 18 1011.1 1011.1 0.0
25/03:00pm 20.3 14.9 4.4 35 7.7 W 22 33 12 18 1010.7 1010.7 0.0
25/02:30pm 20.0 15.2 5.6 39 7.1 WSW 20 35 11 19 1010.7 1010.7 0.0
25/02:00pm 19.9 13.9 5.5 39 7.1 WSW 26 39 14 21 1010.7 1010.7 0.0
25/01:30pm 19.6 13.8 4.5 37 7.3 W 24 35 13 19 1010.7 1010.7 0.0
25/01:00pm 19.3 12.5 5.0 39 6.9 WSW 30 41 16 22 1010.8 1010.8 0.0
25/12:30pm 18.9 12.5 5.4 41 6.6 W 28 37 15 20 1010.8 1010.8 0.0
25/12:00pm 19.1 13.4 6.9 45 6.1 WSW 26 37 14 20 1011.0 1011.0 0.0
25/11:30am 18.6 13.4 7.1 47 5.8 W 24 33 13 18 1010.9 1010.9 0.0
25/11:00am 17.5 11.5 5.1 44 6.0 W 26 35 14 19 1010.9 1010.9 0.0
25/10:30am 17.8 12.2 7.2 50 5.3 W 26 35 14 19 1011.3 1011.3 0.0
25/10:00am 16.9 11.1 6.4 50 5.2 WSW 26 43 14 23 1011.4 1011.4 0.0
25/09:30am 16.1 9.9 6.0 51 4.9 W 28 41 15 22 1011.8 1011.8 0.0
25/09:18am 16.2 10.0 6.3 52 4.8 W 28 46 15 25 1011.8 1011.8 0.0
25/09:00am 16.2 10.8 6.3 52 4.8 WNW 24 37 13 20 1012.1 1012.1 7.0
25/08:30am 16.4 12.5 8.6 60 4.0 WNW 19 26 10 14 1011.6 1011.6 7.0
25/08:00am 15.1 12.1 7.9 62 3.6 NW 13 19 7 10 1011.5 1011.5 7.0
25/07:30am 15.1 13.0 8.1 63 3.5 W 9 15 5 8 1011.4 1011.4 7.0
25/07:00am 15.0 13.0 8.5 65 3.3 WNW 9 13 5 7 1010.9 1010.9 7.0
25/06:30am 15.1 12.3 8.6 65 3.3 W 13 24 7 13 1011.2 1011.2 7.0
25/06:00am 15.2 11.7 8.9 66 3.2 WSW 17 30 9 16 1010.2 1010.2 7.0
25/05:30am 15.4 10.5 8.4 63 3.5 WSW 24 33 13 18 1009.8 1009.7 7.0
25/05:00am 16.0 12.3 10.1 68 3.1 SW 20 30 11 16 1009.7 1009.6 7.0
25/04:30am 16.4 14.0 10.0 66 3.4 SW 13 19 7 10 1009.5 1009.4 7.0
25/04:00am 16.9 14.9 10.3 65 3.5 WSW 11 15 6 8 1008.1 1008.0 7.0
25/03:30am 17.2 13.7 10.1 63 3.8 W 19 30 10 16 1008.4 1008.3 7.0
25/03:00am 17.6 14.5 11.6 68 3.3 WNW 19 26 10 14 1009.0 1008.9 7.0
25/02:30am 18.2 15.7 12.2 68 3.3 W 17 22 9 12 1009.0 1008.9 7.0
25/02:20am 18.2 15.9 13.1 72 2.9 W 17 26 9 14 1009.1 1009.0 7.0
25/02:00am 17.9 18.2 14.6 81 1.9 NW 6 15 3 8 1007.1 1007.0 7.0
25/01:30am 17.9 18.2 15.0 83 1.7 NNE 7 9 4 5 1006.3 1006.2 7.0
25/01:00am 17.7 18.4 15.5 87 1.3 NW 6 9 3 5 1007.5 1007.4 7.0
25/12:30am 17.6 17.4 15.6 88 1.2 NNW 11 15 6 8 1008.0 1007.9 7.0
25/12:00am 17.3 17.1 15.8 91 0.9 NNW 11 15 6 8 1007.6 1007.5 7.0
 
Date/Time
EST
Temp
°C
App
Temp
°C
Dew
Point
°C
Rel
Hum
%
Delta-T
°C
Wind Press
QNH
hPa
Press
MSL
hPa
Rain since
9am
mm
Dir  Spd
km/h
Gust
km/h
Spd
kts
Gust
kts
24/11:30pm 17.4 16.8 15.7 90 1.0 NNW 13 17 7 9 1007.9 1007.8 7.0
24/11:00pm 17.5 16.3 16.0 91 0.9 N 17 20 9 11 1007.4 1007.3 7.0
24/10:30pm 17.1 15.6 15.4 90 1.0 N 17 22 9 12 1007.2 1007.1 7.0
24/10:00pm 16.9 16.1 15.2 90 1.0 NNW 13 15 7 8 1007.3 1007.2 7.0
24/09:30pm 16.5 16.3 14.7 89 1.0 WNW 9 13 5 7 1008.3 1008.2 7.0
24/09:00pm 16.6 16.1 15.0 90 0.9 WNW 11 17 6 9 1008.6 1008.5 7.0
24/08:30pm 17.0 16.2 15.0 88 1.2 NNW 13 19 7 10 1008.6 1008.5 7.0
24/08:00pm 17.4 15.3 15.2 87 1.3 N 20 24 11 13 1008.1 1008.0 7.0
24/07:30pm 16.8 15.8 14.6 87 1.3 NE 13 17 7 9 1007.4 1007.3 6.8
24/07:00pm 16.8 16.1 14.4 86 1.4 ENE 11 15 6 8 1008.1 1008.0 6.8
24/06:30pm 16.7 17.0 14.9 89 1.0 ENE 7 11 4 6 1008.3 1008.2 6.8

Latest Capital City Observations: Canberra | Sydney | Melbourne | Brisbane | Adelaide | Perth | Hobart | Darwin

Other Formats:

Comma delimited format used in spreadsheet applications
http://www.bom.gov.au/fwo/IDQ60901/IDQ60901.95591.axf

JavaScript Object Notation format (JSON) in row-major order
http://www.bom.gov.au/fwo/IDQ60901/IDQ60901.95591.json